createdAt,value
2019-01-30T00:01:27.923Z,40.27
2019-01-30T00:03:58.325Z,39.17
2019-01-30T00:06:28.548Z,43.00
2019-01-30T00:08:58.795Z,42.33
2019-01-30T00:11:29.007Z,33.37
2019-01-30T00:14:00.173Z,26.30
2019-01-30T00:16:30.651Z,23.67
2019-01-30T00:19:01.252Z,20.07
2019-01-30T00:21:31.533Z,19.03
2019-01-30T00:24:01.763Z,16.10
2019-01-30T00:26:31.982Z,15.40
2019-01-30T00:29:02.227Z,19.63
2019-01-30T00:31:32.514Z,18.10
2019-01-30T00:34:02.749Z,21.93
2019-01-30T00:36:33.025Z,20.63
2019-01-30T00:39:04.899Z,20.10
2019-01-30T00:41:36.709Z,18.37
2019-01-30T00:44:06.934Z,19.70
2019-01-30T00:46:37.135Z,18.03
2019-01-30T00:49:07.366Z,16.83
2019-01-30T00:51:37.579Z,17.87
2019-01-30T00:54:07.826Z,15.07
2019-01-30T00:56:38.010Z,17.13
2019-01-30T00:59:08.232Z,18.13
2019-01-30T01:01:38.444Z,18.83
2019-01-30T01:04:08.664Z,18.30
2019-01-30T01:06:38.871Z,18.10
2019-01-30T01:09:10.372Z,17.63
2019-01-30T01:11:40.577Z,17.30
2019-01-30T01:14:11.640Z,18.10
2019-01-30T01:16:43.115Z,21.10
2019-01-30T01:19:13.374Z,21.70
2019-01-30T01:21:43.848Z,23.03
2019-01-30T01:24:14.075Z,20.63
2019-01-30T01:26:44.284Z,19.93
2019-01-30T01:29:14.509Z,18.90
2019-01-30T01:31:44.711Z,17.43
2019-01-30T01:34:14.935Z,16.83
2019-01-30T01:36:45.157Z,16.37
2019-01-30T01:39:15.382Z,15.30
2019-01-30T01:41:45.587Z,15.60
2019-01-30T01:44:15.817Z,16.10
2019-01-30T01:46:46.024Z,15.83
2019-01-30T01:49:17.496Z,16.33
2019-01-30T01:51:47.697Z,17.60
2019-01-30T01:54:17.921Z,16.87
2019-01-30T01:56:48.128Z,17.90
2019-01-30T01:59:18.360Z,17.83
2019-01-30T02:01:48.568Z,17.80
2019-01-30T02:04:18.803Z,17.20
2019-01-30T02:06:49.010Z,16.13
2019-01-30T02:09:19.236Z,16.70
2019-01-30T02:11:49.439Z,15.10
2019-01-30T02:14:20.659Z,16.83
2019-01-30T02:16:50.869Z,17.20
2019-01-30T02:19:21.091Z,15.13
2019-01-30T02:21:51.301Z,17.07
2019-01-30T02:24:21.531Z,15.73
2019-01-30T02:26:51.844Z,15.20
2019-01-30T02:29:22.042Z,15.60
2019-01-30T02:31:52.249Z,15.50
2019-01-30T02:34:22.473Z,15.33
2019-01-30T02:36:58.487Z,14.63
2019-01-30T02:39:28.722Z,15.07
2019-01-30T02:41:58.915Z,14.80
2019-01-30T02:44:29.169Z,15.30
2019-01-30T02:46:59.366Z,14.93
2019-01-30T02:49:29.590Z,15.70
2019-01-30T02:51:59.800Z,14.03
2019-01-30T02:54:30.027Z,14.20
2019-01-30T02:57:01.795Z,14.70
2019-01-30T02:59:32.026Z,13.80
2019-01-30T03:02:03.870Z,14.03
2019-01-30T03:04:34.098Z,14.50
2019-01-30T03:07:04.313Z,14.20
2019-01-30T03:09:34.546Z,14.83
2019-01-30T03:12:04.755Z,12.33
2019-01-30T03:14:35.850Z,14.87
2019-01-30T03:17:06.049Z,13.10
2019-01-30T03:19:36.285Z,13.37
2019-01-30T03:22:07.836Z,12.73
2019-01-30T03:24:38.080Z,13.37
2019-01-30T03:27:08.292Z,14.13
2019-01-30T03:29:38.523Z,12.13
2019-01-30T03:32:08.746Z,13.47
2019-01-30T03:34:38.965Z,13.30
2019-01-30T03:37:09.179Z,11.83
2019-01-30T03:39:39.414Z,13.60
2019-01-30T03:42:09.628Z,12.03
2019-01-30T03:44:39.861Z,11.87
2019-01-30T03:47:10.070Z,12.60
2019-01-30T03:49:40.310Z,11.67
2019-01-30T03:52:10.525Z,11.53
2019-01-30T03:54:40.760Z,12.07
2019-01-30T03:57:10.982Z,12.47
2019-01-30T03:59:41.220Z,12.57
2019-01-30T04:02:11.429Z,11.50
2019-01-30T04:04:41.658Z,11.03
2019-01-30T04:07:11.872Z,11.00
2019-01-30T04:09:42.104Z,10.67
2019-01-30T04:12:12.319Z,10.77
2019-01-30T04:14:43.629Z,10.13
2019-01-30T04:17:13.851Z,11.10
2019-01-30T04:19:44.090Z,10.13
2019-01-30T04:22:15.559Z,12.20
2019-01-30T04:24:50.470Z,10.53
2019-01-30T04:27:21.471Z,11.37
2019-01-30T04:29:51.733Z,11.17
2019-01-30T04:32:21.942Z,11.57
2019-01-30T04:34:52.172Z,10.97
2019-01-30T04:37:22.379Z,9.63
2019-01-30T04:39:52.618Z,11.10
2019-01-30T04:42:22.828Z,11.27
2019-01-30T04:44:53.063Z,10.83
2019-01-30T04:47:23.271Z,10.93
2019-01-30T04:49:53.503Z,10.67
2019-01-30T04:52:23.721Z,11.40
2019-01-30T04:54:53.953Z,10.90
2019-01-30T04:57:24.168Z,10.80
2019-01-30T04:59:54.395Z,11.90
2019-01-30T05:02:24.608Z,10.50
2019-01-30T05:04:54.845Z,12.10
2019-01-30T05:07:25.060Z,10.73
2019-01-30T05:09:55.296Z,10.00
2019-01-30T05:12:26.777Z,10.33
2019-01-30T05:15:00.705Z,11.03
2019-01-30T05:17:31.178Z,11.07
2019-01-30T05:20:01.435Z,10.87
2019-01-30T05:22:32.865Z,10.77
2019-01-30T05:25:03.082Z,10.77
2019-01-30T05:27:34.530Z,10.67
2019-01-30T05:30:16.915Z,10.97
2019-01-30T05:32:47.245Z,10.37
2019-01-30T05:35:17.490Z,11.10
2019-01-30T05:37:51.291Z,10.30
2019-01-30T05:40:22.638Z,12.07
2019-01-30T05:42:53.044Z,11.80
2019-01-30T05:45:23.281Z,10.83
2019-01-30T05:47:53.491Z,16.00
2019-01-30T05:50:23.803Z,17.77
2019-01-30T05:52:54.011Z,18.67
2019-01-30T05:55:24.235Z,16.90
2019-01-30T05:57:54.456Z,15.20
2019-01-30T06:00:34.419Z,13.73
2019-01-30T06:03:12.830Z,13.87
2019-01-30T06:05:46.120Z,14.70
2019-01-30T06:08:16.321Z,13.70
2019-01-30T06:10:46.719Z,13.40
2019-01-30T06:13:18.842Z,13.37
2019-01-30T06:15:51.278Z,14.33
2019-01-30T06:18:21.660Z,13.10
2019-01-30T06:20:51.905Z,14.00
2019-01-30T06:23:24.158Z,13.33
2019-01-30T06:25:54.396Z,14.50
2019-01-30T06:28:28.637Z,14.47
2019-01-30T06:30:56.530Z,16.20
2019-01-30T06:33:26.738Z,15.67
2019-01-30T06:35:56.970Z,15.10
2019-01-30T06:38:27.178Z,15.60
2019-01-30T06:40:57.411Z,16.63
2019-01-30T06:43:27.617Z,19.00
2019-01-30T06:45:57.847Z,21.97
2019-01-30T06:48:28.063Z,15.73
2019-01-30T06:50:58.296Z,16.00
2019-01-30T06:53:28.507Z,18.30
2019-01-30T06:55:58.729Z,20.27
2019-01-30T06:58:28.940Z,20.20
2019-01-30T07:01:00.242Z,18.67
2019-01-30T07:03:30.457Z,17.57
2019-01-30T07:06:00.686Z,16.10
2019-01-30T07:08:30.901Z,15.93
2019-01-30T07:11:10.689Z,16.83
2019-01-30T07:13:39.202Z,20.00
2019-01-30T07:16:10.200Z,23.87
2019-01-30T07:18:41.141Z,19.47
2019-01-30T07:21:11.374Z,18.77
2019-01-30T07:23:41.603Z,16.70
2019-01-30T07:26:12.022Z,16.57
2019-01-30T07:28:42.386Z,18.23
2019-01-30T07:31:12.676Z,17.97
2019-01-30T07:33:42.920Z,17.93
2019-01-30T07:36:13.215Z,16.57
2019-01-30T07:38:43.664Z,18.57
2019-01-30T07:41:15.068Z,16.97
2019-01-30T07:43:45.622Z,25.10
2019-01-30T07:46:17.495Z,22.80
2019-01-30T07:48:48.697Z,25.13
2019-01-30T07:51:18.945Z,21.70
2019-01-30T07:53:49.168Z,30.60
2019-01-30T07:56:19.471Z,28.07
2019-01-30T07:58:49.678Z,23.03
2019-01-30T08:01:22.163Z,20.00
2019-01-30T08:03:52.479Z,25.07
2019-01-30T08:06:22.826Z,19.30
2019-01-30T08:08:53.676Z,20.37
2019-01-30T08:11:24.131Z,23.40
2019-01-30T08:13:55.555Z,42.73
2019-01-30T08:16:25.798Z,24.53
2019-01-30T08:18:56.019Z,28.00
2019-01-30T08:21:28.001Z,26.93
2019-01-30T08:23:58.829Z,24.37
2019-01-30T08:26:29.220Z,20.63
2019-01-30T08:29:00.992Z,22.63
2019-01-30T08:31:31.434Z,25.93
2019-01-30T08:34:01.647Z,24.33
2019-01-30T08:36:31.911Z,19.27
2019-01-30T08:39:02.139Z,20.13
2019-01-30T08:41:34.211Z,23.33
2019-01-30T08:44:04.432Z,22.67
2019-01-30T08:46:34.671Z,17.97
2019-01-30T08:49:06.028Z,17.17
2019-01-30T08:51:38.131Z,17.57
2019-01-30T08:54:08.345Z,17.70
2019-01-30T08:56:39.193Z,20.47
2019-01-30T08:59:10.868Z,18.03
2019-01-30T09:01:41.159Z,15.53
2019-01-30T09:04:11.498Z,15.17
2019-01-30T09:06:41.908Z,17.57
2019-01-30T09:09:12.413Z,23.47
2019-01-30T09:11:42.682Z,14.40
2019-01-30T09:14:14.858Z,17.17
2019-01-30T09:16:46.811Z,16.37
2019-01-30T09:19:17.154Z,14.27
2019-01-30T09:21:47.407Z,14.47
2019-01-30T09:24:17.742Z,12.07
2019-01-30T09:26:49.508Z,15.33
2019-01-30T09:29:19.730Z,16.63
2019-01-30T09:31:49.962Z,12.07
2019-01-30T09:34:20.261Z,11.87
2019-01-30T09:36:50.655Z,10.13
2019-01-30T09:39:23.491Z,13.90
2019-01-30T09:41:53.929Z,18.00
2019-01-30T09:44:24.187Z,14.43
2019-01-30T09:46:54.404Z,11.93
2019-01-30T09:49:27.534Z,13.93
2019-01-30T09:51:57.881Z,10.60
2019-01-30T09:54:29.680Z,13.17
2019-01-30T09:56:59.924Z,10.13
2019-01-30T09:59:31.032Z,10.37
2019-01-30T10:02:01.336Z,11.63
2019-01-30T10:04:31.555Z,11.20
2019-01-30T10:07:01.795Z,7.90
2019-01-30T10:09:32.012Z,9.03
2019-01-30T10:12:02.228Z,8.00
2019-01-30T10:14:32.439Z,6.17
2019-01-30T10:17:03.814Z,5.97
2019-01-30T10:19:34.102Z,6.30
2019-01-30T10:22:04.512Z,6.83
2019-01-30T10:24:34.721Z,8.77
2019-01-30T10:27:04.960Z,9.63
2019-01-30T10:29:36.119Z,9.40
2019-01-30T10:32:06.359Z,7.53
2019-01-30T10:34:36.563Z,7.80
2019-01-30T10:37:06.819Z,7.60
2019-01-30T10:39:37.017Z,6.83
2019-01-30T10:42:07.245Z,6.53
2019-01-30T10:44:37.462Z,7.80
2019-01-30T10:47:07.693Z,7.40
2019-01-30T10:49:37.902Z,5.60
2019-01-30T10:52:08.145Z,9.80
2019-01-30T10:54:38.368Z,8.20
2019-01-30T10:57:08.812Z,8.87
2019-01-30T10:59:39.029Z,10.47
2019-01-30T11:02:09.250Z,6.73
2019-01-30T11:04:39.475Z,9.73
2019-01-30T11:07:09.701Z,7.53
2019-01-30T11:09:39.937Z,7.30
2019-01-30T11:12:10.164Z,7.17
2019-01-30T11:14:41.077Z,7.80
2019-01-30T11:17:12.348Z,4.97
2019-01-30T11:19:42.564Z,6.37
2019-01-30T11:22:12.805Z,5.73
2019-01-30T11:24:43.022Z,6.53
2019-01-30T11:27:13.292Z,16.43
2019-01-30T11:29:43.566Z,7.70
2019-01-30T11:32:13.790Z,7.90
2019-01-30T11:34:43.989Z,6.57
2019-01-30T11:37:14.223Z,6.60
2019-01-30T11:39:44.421Z,7.13
2019-01-30T11:42:15.721Z,9.77
2019-01-30T11:44:46.005Z,8.90
2019-01-30T11:47:16.236Z,8.83
2019-01-30T11:49:46.432Z,8.33
2019-01-30T11:52:16.735Z,10.27
2019-01-30T11:54:46.944Z,7.17
2019-01-30T11:57:17.172Z,7.07
2019-01-30T11:59:47.380Z,7.20
2019-01-30T12:02:17.613Z,5.97
2019-01-30T12:04:47.828Z,11.90
2019-01-30T12:07:18.051Z,7.40
2019-01-30T12:09:48.258Z,5.23
2019-01-30T12:12:18.491Z,6.00
2019-01-30T12:14:48.696Z,6.53
2019-01-30T12:17:19.703Z,6.00
2019-01-30T12:19:49.909Z,5.83
2019-01-30T12:22:20.159Z,7.03
2019-01-30T12:24:50.374Z,7.77
2019-01-30T12:27:20.867Z,7.67
2019-01-30T12:29:52.173Z,8.13
2019-01-30T12:32:22.447Z,9.17
2019-01-30T12:34:52.641Z,8.97
2019-01-30T12:37:23.946Z,19.00
2019-01-30T12:39:54.149Z,20.80
2019-01-30T12:42:24.379Z,10.73
2019-01-30T12:44:54.586Z,9.63
2019-01-30T12:47:24.810Z,7.77
2019-01-30T12:49:55.016Z,12.17
2019-01-30T12:52:25.295Z,8.33
2019-01-30T12:54:56.634Z,7.07
2019-01-30T12:57:26.857Z,11.23
2019-01-30T12:59:57.128Z,9.90
2019-01-30T13:02:27.358Z,10.83
2019-01-30T13:04:57.561Z,9.87
2019-01-30T13:07:27.787Z,9.57
2019-01-30T13:10:00.209Z,8.60
2019-01-30T13:12:30.449Z,16.03
2019-01-30T13:15:00.679Z,19.20
2019-01-30T13:17:31.770Z,12.20
2019-01-30T13:20:01.995Z,11.03
2019-01-30T13:22:33.500Z,17.40
2019-01-30T13:25:04.687Z,18.17
2019-01-30T13:27:34.942Z,22.00
2019-01-30T13:30:17.434Z,26.03
2019-01-30T13:32:48.837Z,22.57
2019-01-30T13:35:19.333Z,17.60
2019-01-30T13:37:50.484Z,16.43
2019-01-30T13:40:23.544Z,20.40
2019-01-30T13:42:54.932Z,24.40
2019-01-30T13:45:25.213Z,14.90
2019-01-30T13:47:55.456Z,19.97
2019-01-30T13:50:27.233Z,39.93
2019-01-30T13:52:57.453Z,18.97
2019-01-30T13:55:27.675Z,15.97
2019-01-30T13:57:58.098Z,12.53
2019-01-30T14:00:30.861Z,9.87
2019-01-30T14:03:01.092Z,20.47
2019-01-30T14:05:31.952Z,14.27
2019-01-30T14:08:02.204Z,9.70
2019-01-30T14:10:32.494Z,13.43
2019-01-30T14:13:02.696Z,14.10
2019-01-30T14:15:33.476Z,10.63
2019-01-30T14:18:06.378Z,15.93
2019-01-30T14:20:36.564Z,9.80
2019-01-30T14:23:06.774Z,14.93
2019-01-30T14:25:37.041Z,19.23
2019-01-30T14:28:08.786Z,17.17
2019-01-30T14:30:41.742Z,19.23
2019-01-30T14:33:11.971Z,20.53
2019-01-30T14:35:42.194Z,15.20
2019-01-30T14:41:16.139Z,21.77
2019-01-30T14:43:46.693Z,18.90
2019-01-30T14:46:17.251Z,19.47
2019-01-30T14:48:48.662Z,19.13
2019-01-30T14:51:18.896Z,16.13
2019-01-30T14:53:49.176Z,28.27
2019-01-30T14:56:19.638Z,25.40
2019-01-30T14:58:51.050Z,21.60
2019-01-30T15:01:21.356Z,26.07
2019-01-30T15:03:51.600Z,19.83
2019-01-30T15:06:21.883Z,21.10
2019-01-30T15:08:52.649Z,22.73
2019-01-30T15:11:22.966Z,21.57
2019-01-30T15:13:53.204Z,24.03
2019-01-30T15:16:23.472Z,20.53
2019-01-30T15:18:53.921Z,16.47
2019-01-30T15:21:24.529Z,27.60
2019-01-30T15:23:54.741Z,19.30
2019-01-30T15:26:25.036Z,19.63
2019-01-30T15:28:55.268Z,21.50
2019-01-30T15:31:26.719Z,24.13
2019-01-30T15:33:56.968Z,20.23
2019-01-30T15:36:27.275Z,23.07
2019-01-30T15:38:57.681Z,20.87
2019-01-30T15:41:29.248Z,30.73
2019-01-30T15:43:59.489Z,18.60
2019-01-30T15:46:29.930Z,17.50
2019-01-30T15:49:00.469Z,24.33
2019-01-30T15:51:32.196Z,30.60
2019-01-30T15:54:02.443Z,32.40
2019-01-30T15:56:32.743Z,24.03
2019-01-30T15:59:03.166Z,19.47
2019-01-30T16:01:33.441Z,16.97
2019-01-30T16:04:06.038Z,17.40
2019-01-30T16:06:37.844Z,25.33
2019-01-30T16:09:07.652Z,46.90
2019-01-30T16:11:38.588Z,21.73
2019-01-30T16:14:09.211Z,28.43
2019-01-30T16:16:39.651Z,32.83
2019-01-30T16:19:10.781Z,38.73
2019-01-30T16:21:41.336Z,37.77
2019-01-30T16:24:11.605Z,36.20
2019-01-30T16:26:42.118Z,54.33
2019-01-30T16:29:12.381Z,40.50
2019-01-30T16:31:42.673Z,38.33
2019-01-30T16:34:13.026Z,38.53
2019-01-30T16:36:43.306Z,41.10
2019-01-30T16:39:13.569Z,30.77
2019-01-30T16:41:44.026Z,26.27
2019-01-30T16:44:14.292Z,38.40
2019-01-30T16:46:46.013Z,30.03
2019-01-30T16:49:16.552Z,25.77
2019-01-30T16:51:46.839Z,46.20
2019-01-30T16:54:17.412Z,40.23
2019-01-30T16:56:47.700Z,30.77
2019-01-30T16:59:19.050Z,71.97
2019-01-30T17:01:50.408Z,54.17
2019-01-30T17:04:20.686Z,67.73
2019-01-30T17:06:53.867Z,59.27
2019-01-30T17:09:25.584Z,71.67
2019-01-30T17:11:57.769Z,35.43
2019-01-30T17:14:28.251Z,30.73
2019-01-30T17:16:59.724Z,38.47
2019-01-30T17:19:33.158Z,48.80
2019-01-30T17:22:03.731Z,38.70
2019-01-30T17:24:35.611Z,38.10
2019-01-30T17:27:08.192Z,32.57
2019-01-30T17:29:38.633Z,38.33
2019-01-30T17:32:08.903Z,38.87
2019-01-30T17:34:39.166Z,33.20
2019-01-30T17:37:09.802Z,29.60
2019-01-30T17:39:41.675Z,31.93
2019-01-30T17:42:12.228Z,58.93
2019-01-30T17:44:42.488Z,40.80
2019-01-30T17:47:12.776Z,48.30
2019-01-30T17:49:43.043Z,31.43
2019-01-30T17:52:16.359Z,31.53
2019-01-30T17:54:47.004Z,32.60
2019-01-30T17:57:17.574Z,31.43
2019-01-30T17:59:48.863Z,32.40
2019-01-30T18:02:19.535Z,35.27
2019-01-30T18:04:49.799Z,40.67
2019-01-30T18:07:20.065Z,35.70
2019-01-30T18:09:50.693Z,46.37
2019-01-30T18:12:20.968Z,44.87
2019-01-30T18:14:55.606Z,56.73
2019-01-30T18:17:29.621Z,41.67
2019-01-30T18:20:04.153Z,35.20
2019-01-30T18:22:34.497Z,45.50
2019-01-30T18:25:11.929Z,36.97
2019-01-30T18:27:44.287Z,36.90
2019-01-30T18:30:23.001Z,45.10
2019-01-30T18:32:57.921Z,44.40
2019-01-30T18:35:28.666Z,34.20
2019-01-30T18:37:59.084Z,33.77
2019-01-30T18:40:32.830Z,45.53
2019-01-30T18:43:03.368Z,38.90
2019-01-30T18:45:33.760Z,42.93
2019-01-30T18:48:04.706Z,36.77
2019-01-30T18:50:35.140Z,40.57
2019-01-30T18:53:05.638Z,35.73
2019-01-30T18:55:35.991Z,41.00
2019-01-30T18:58:08.459Z,35.83
2019-01-30T19:00:46.396Z,28.97
2019-01-30T19:03:16.751Z,34.50
2019-01-30T19:05:50.359Z,29.43
2019-01-30T19:08:23.568Z,30.07
2019-01-30T19:10:54.265Z,33.63
2019-01-30T19:13:25.299Z,35.07
2019-01-30T19:15:55.953Z,37.73
2019-01-30T19:18:31.174Z,41.13
2019-01-30T19:21:02.655Z,43.43
2019-01-30T19:23:34.098Z,37.77
2019-01-30T19:26:08.958Z,35.87
2019-01-30T19:28:40.100Z,47.27
2019-01-30T19:31:10.633Z,33.77
2019-01-30T19:33:41.238Z,38.40
2019-01-30T19:36:11.668Z,40.93
2019-01-30T19:38:42.290Z,43.10
2019-01-30T19:41:13.098Z,56.10
2019-01-30T19:43:43.612Z,52.43
2019-01-30T19:46:15.910Z,61.47
2019-01-30T19:48:47.539Z,44.20
2019-01-30T19:51:17.931Z,49.40
2019-01-30T19:53:49.656Z,47.20
2019-01-30T19:56:21.122Z,41.87
2019-01-30T19:58:52.605Z,50.87
2019-01-30T20:01:23.095Z,39.77
2019-01-30T20:03:54.584Z,33.17
2019-01-30T20:06:32.065Z,35.77
2019-01-30T20:09:04.962Z,36.90
2019-01-30T20:11:37.081Z,34.23
2019-01-30T20:14:11.198Z,31.63
2019-01-30T20:16:43.758Z,32.10
2019-01-30T20:19:15.858Z,32.50
2019-01-30T20:21:47.132Z,31.23
2019-01-30T20:24:17.537Z,30.90
2019-01-30T20:26:48.982Z,34.90
2019-01-30T20:29:20.447Z,31.67
2019-01-30T20:31:53.426Z,32.50
2019-01-30T20:34:24.903Z,37.10
2019-01-30T20:36:55.168Z,33.17
2019-01-30T20:39:34.256Z,36.77
2019-01-30T20:42:04.858Z,30.50
2019-01-30T20:44:36.398Z,33.37
2019-01-30T20:47:09.657Z,35.07
2019-01-30T20:49:40.090Z,31.47
2019-01-30T20:52:11.019Z,29.73
2019-01-30T20:54:43.660Z,36.07
2019-01-30T20:57:18.489Z,33.87
2019-01-30T20:59:48.931Z,38.20
2019-01-30T21:02:20.714Z,42.10
2019-01-30T21:04:51.266Z,39.97
2019-01-30T21:07:22.014Z,40.53
2019-01-30T21:09:52.565Z,36.60
2019-01-30T21:12:24.374Z,36.03
2019-01-30T21:14:55.230Z,35.13
2019-01-30T21:17:26.427Z,36.10
2019-01-30T21:19:57.868Z,32.23
2019-01-30T21:22:28.927Z,33.30
2019-01-30T21:25:01.268Z,35.03
2019-01-30T21:27:32.950Z,36.07
2019-01-30T21:30:03.605Z,45.00
2019-01-30T21:32:34.347Z,37.53
2019-01-30T21:35:06.509Z,44.70
2019-01-30T21:37:48.366Z,44.27
2019-01-30T21:40:14.249Z,42.60
2019-01-30T21:42:46.496Z,39.23
2019-01-30T21:45:29.105Z,35.30
2019-01-30T21:48:02.225Z,35.53
2019-01-30T21:50:36.444Z,36.73
2019-01-30T21:53:06.902Z,41.23
2019-01-30T21:55:38.345Z,45.80
2019-01-30T21:58:09.849Z,46.00
2019-01-30T22:00:40.316Z,40.23
2019-01-30T22:03:11.789Z,40.87
2019-01-30T22:05:43.527Z,45.47
2019-01-30T22:08:15.179Z,40.87
2019-01-30T22:10:45.650Z,38.93
2019-01-30T22:13:16.050Z,36.37
2019-01-30T22:15:47.792Z,36.00
2019-01-30T22:18:19.299Z,37.87
2019-01-30T22:20:49.769Z,37.97
2019-01-30T22:23:20.949Z,37.93
2019-01-30T22:25:52.364Z,34.60
2019-01-30T22:28:23.843Z,32.60
2019-01-30T22:30:55.263Z,32.53
2019-01-30T22:33:26.746Z,32.60
2019-01-30T22:35:58.178Z,31.90
2019-01-30T22:38:29.630Z,31.30
2019-01-30T22:41:01.081Z,29.87
2019-01-30T22:43:32.532Z,30.17
2019-01-30T22:46:04.890Z,38.37
2019-01-30T22:48:35.508Z,32.10
2019-01-30T22:51:05.945Z,33.20
2019-01-30T22:53:37.425Z,36.83
2019-01-30T22:56:08.843Z,35.40
2019-01-30T22:58:40.320Z,31.37
2019-01-30T23:01:20.491Z,30.73
2019-01-30T23:03:56.337Z,30.47
2019-01-30T23:06:32.950Z,32.37
2019-01-30T23:09:21.728Z,29.33
2019-01-30T23:12:04.164Z,32.77
2019-01-30T23:14:37.993Z,29.80
2019-01-30T23:17:20.446Z,29.10
2019-01-30T23:19:54.174Z,29.70
2019-01-30T23:22:28.051Z,31.97
2019-01-30T23:25:29.617Z,28.47
2019-01-30T23:28:03.222Z,27.73
2019-01-30T23:30:51.710Z,27.70
2019-01-30T23:33:32.478Z,27.80
2019-01-30T23:36:15.154Z,26.73
2019-01-30T23:38:57.027Z,28.13
2019-01-30T23:41:50.182Z,26.57
2019-01-30T23:44:29.920Z,29.43
2019-01-30T23:47:36.732Z,26.67
2019-01-30T23:50:16.422Z,27.77
2019-01-30T23:53:01.451Z,27.47
2019-01-30T23:55:58.004Z,27.93
2019-01-30T23:58:49.816Z,26.90
